sensor_id;sensor_type;location;lat;lon;timestamp;temperature;humidity
68922;DHT22;55959;51.244;5.724;2023-05-17T00:00:58;14.30;57.00
68922;DHT22;55959;51.244;5.724;2023-05-17T00:03:24;14.30;57.10
68922;DHT22;55959;51.244;5.724;2023-05-17T00:05:50;14.20;57.30
68922;DHT22;55959;51.244;5.724;2023-05-17T00:08:15;14.20;57.50
68922;DHT22;55959;51.244;5.724;2023-05-17T00:10:41;14.20;57.60
68922;DHT22;55959;51.244;5.724;2023-05-17T00:13:07;14.10;57.60
68922;DHT22;55959;51.244;5.724;2023-05-17T00:15:33;14.10;57.70
68922;DHT22;55959;51.244;5.724;2023-05-17T00:17:59;14.10;57.80
68922;DHT22;55959;51.244;5.724;2023-05-17T00:20:24;14.00;57.80
68922;DHT22;55959;51.244;5.724;2023-05-17T00:22:50;14.00;57.90
68922;DHT22;55959;51.244;5.724;2023-05-17T00:25:16;14.00;57.90
68922;DHT22;55959;51.244;5.724;2023-05-17T00:27:42;14.00;58.00
68922;DHT22;55959;51.244;5.724;2023-05-17T00:30:08;13.90;58.00
68922;DHT22;55959;51.244;5.724;2023-05-17T00:32:33;13.90;58.00
68922;DHT22;55959;51.244;5.724;2023-05-17T00:34:59;13.80;58.10
68922;DHT22;55959;51.244;5.724;2023-05-17T00:37:25;13.80;58.30
68922;DHT22;55959;51.244;5.724;2023-05-17T00:39:51;13.80;58.50
68922;DHT22;55959;51.244;5.724;2023-05-17T00:42:18;13.80;58.60
68922;DHT22;55959;51.244;5.724;2023-05-17T00:44:44;13.80;58.60
68922;DHT22;55959;51.244;5.724;2023-05-17T00:47:09;13.70;58.60
68922;DHT22;55959;51.244;5.724;2023-05-17T00:49:36;13.70;58.90
68922;DHT22;55959;51.244;5.724;2023-05-17T00:52:02;13.70;58.90
68922;DHT22;55959;51.244;5.724;2023-05-17T00:54:29;13.60;59.00
68922;DHT22;55959;51.244;5.724;2023-05-17T00:56:55;13.60;59.10
68922;DHT22;55959;51.244;5.724;2023-05-17T00:59:25;13.60;59.20
68922;DHT22;55959;51.244;5.724;2023-05-17T01:01:51;13.60;59.30
68922;DHT22;55959;51.244;5.724;2023-05-17T01:04:17;13.50;59.30
68922;DHT22;55959;51.244;5.724;2023-05-17T01:06:43;13.50;59.40
68922;DHT22;55959;51.244;5.724;2023-05-17T01:09:11;13.50;59.50
68922;DHT22;55959;51.244;5.724;2023-05-17T01:12:10;13.50;59.70
68922;DHT22;55959;51.244;5.724;2023-05-17T01:15:07;13.40;59.80
68922;DHT22;55959;51.244;5.724;2023-05-17T01:20:47;13.40;60.00
68922;DHT22;55959;51.244;5.724;2023-05-17T01:26:13;13.30;60.00
68922;DHT22;55959;51.244;5.724;2023-05-17T01:28:47;13.20;60.20
68922;DHT22;55959;51.244;5.724;2023-05-17T01:31:14;13.20;60.40
68922;DHT22;55959;51.244;5.724;2023-05-17T01:33:40;13.20;60.60
68922;DHT22;55959;51.244;5.724;2023-05-17T01:36:06;13.20;60.80
68922;DHT22;55959;51.244;5.724;2023-05-17T01:38:32;13.20;61.00
68922;DHT22;55959;51.244;5.724;2023-05-17T01:41:10;13.10;61.20
68922;DHT22;55959;51.244;5.724;2023-05-17T01:43:57;13.10;61.20
68922;DHT22;55959;51.244;5.724;2023-05-17T01:46:39;13.10;61.60
68922;DHT22;55959;51.244;5.724;2023-05-17T01:49:17;13.10;61.60
68922;DHT22;55959;51.244;5.724;2023-05-17T01:54:30;13.00;62.10
68922;DHT22;55959;51.244;5.724;2023-05-17T01:56:58;13.00;62.20
68922;DHT22;55959;51.244;5.724;2023-05-17T01:59:24;12.90;62.20
68922;DHT22;55959;51.244;5.724;2023-05-17T02:01:57;12.90;62.50
68922;DHT22;55959;51.244;5.724;2023-05-17T02:04:30;12.90;62.50
68922;DHT22;55959;51.244;5.724;2023-05-17T02:06:56;12.90;62.40
68922;DHT22;55959;51.244;5.724;2023-05-17T02:09:22;12.90;62.20
68922;DHT22;55959;51.244;5.724;2023-05-17T02:11:48;12.90;62.20
68922;DHT22;55959;51.244;5.724;2023-05-17T02:14:13;12.80;62.10
68922;DHT22;55959;51.244;5.724;2023-05-17T02:16:39;12.80;62.00
68922;DHT22;55959;51.244;5.724;2023-05-17T02:19:05;12.80;62.00
68922;DHT22;55959;51.244;5.724;2023-05-17T02:21:33;12.80;62.20
68922;DHT22;55959;51.244;5.724;2023-05-17T02:23:59;12.80;62.30
68922;DHT22;55959;51.244;5.724;2023-05-17T02:26:26;12.80;62.40
68922;DHT22;55959;51.244;5.724;2023-05-17T02:28:52;12.80;62.30
68922;DHT22;55959;51.244;5.724;2023-05-17T02:31:18;12.80;62.40
68922;DHT22;55959;51.244;5.724;2023-05-17T02:33:43;12.70;62.50
68922;DHT22;55959;51.244;5.724;2023-05-17T02:36:09;12.70;62.60
68922;DHT22;55959;51.244;5.724;2023-05-17T02:38:35;12.70;62.90
68922;DHT22;55959;51.244;5.724;2023-05-17T02:41:01;12.70;63.10
68922;DHT22;55959;51.244;5.724;2023-05-17T02:43:28;12.70;63.10
68922;DHT22;55959;51.244;5.724;2023-05-17T02:45:53;12.70;63.20
68922;DHT22;55959;51.244;5.724;2023-05-17T02:48:19;12.60;63.10
68922;DHT22;55959;51.244;5.724;2023-05-17T02:50:45;12.60;63.50
68922;DHT22;55959;51.244;5.724;2023-05-17T02:53:10;12.60;63.70
68922;DHT22;55959;51.244;5.724;2023-05-17T02:55:36;12.60;63.90
68922;DHT22;55959;51.244;5.724;2023-05-17T02:58:02;12.60;65.00
68922;DHT22;55959;51.244;5.724;2023-05-17T03:00:28;12.50;64.10
68922;DHT22;55959;51.244;5.724;2023-05-17T03:02:54;12.50;64.10
68922;DHT22;55959;51.244;5.724;2023-05-17T03:05:20;12.50;64.10
68922;DHT22;55959;51.244;5.724;2023-05-17T03:07:46;12.50;64.40
68922;DHT22;55959;51.244;5.724;2023-05-17T03:10:12;12.40;64.70
68922;DHT22;55959;51.244;5.724;2023-05-17T03:12:37;12.40;64.80
68922;DHT22;55959;51.244;5.724;2023-05-17T03:15:03;12.40;64.70
68922;DHT22;55959;51.244;5.724;2023-05-17T03:17:29;12.40;64.60
68922;DHT22;55959;51.244;5.724;2023-05-17T03:19:55;12.40;64.50
68922;DHT22;55959;51.244;5.724;2023-05-17T03:22:21;12.40;64.50
68922;DHT22;55959;51.244;5.724;2023-05-17T03:24:47;12.30;64.70
68922;DHT22;55959;51.244;5.724;2023-05-17T03:27:12;12.30;64.70
68922;DHT22;55959;51.244;5.724;2023-05-17T03:29:38;12.30;64.70
68922;DHT22;55959;51.244;5.724;2023-05-17T03:32:04;12.30;64.60
68922;DHT22;55959;51.244;5.724;2023-05-17T03:34:31;12.30;64.60
68922;DHT22;55959;51.244;5.724;2023-05-17T03:36:56;12.30;64.80
68922;DHT22;55959;51.244;5.724;2023-05-17T03:39:22;12.30;64.90
68922;DHT22;55959;51.244;5.724;2023-05-17T03:41:48;12.30;65.10
68922;DHT22;55959;51.244;5.724;2023-05-17T03:44:15;12.30;65.20
68922;DHT22;55959;51.244;5.724;2023-05-17T03:46:42;12.20;65.20
68922;DHT22;55959;51.244;5.724;2023-05-17T03:49:07;12.20;65.80
68922;DHT22;55959;51.244;5.724;2023-05-17T03:51:33;12.20;66.10
68922;DHT22;55959;51.244;5.724;2023-05-17T03:53:59;12.20;66.60
68922;DHT22;55959;51.244;5.724;2023-05-17T03:56:26;12.20;66.70
68922;DHT22;55959;51.244;5.724;2023-05-17T03:58:52;12.20;66.70
68922;DHT22;55959;51.244;5.724;2023-05-17T04:01:17;12.20;66.90
68922;DHT22;55959;51.244;5.724;2023-05-17T04:03:45;12.20;67.00
68922;DHT22;55959;51.244;5.724;2023-05-17T04:06:13;12.20;67.30
68922;DHT22;55959;51.244;5.724;2023-05-17T04:08:39;12.10;67.40
68922;DHT22;55959;51.244;5.724;2023-05-17T04:11:05;12.20;67.40
68922;DHT22;55959;51.244;5.724;2023-05-17T04:13:40;12.10;67.40
68922;DHT22;55959;51.244;5.724;2023-05-17T04:16:07;12.20;67.60
68922;DHT22;55959;51.244;5.724;2023-05-17T04:18:35;12.10;67.70
68922;DHT22;55959;51.244;5.724;2023-05-17T04:21:02;12.20;67.90
68922;DHT22;55959;51.244;5.724;2023-05-17T04:23:28;12.20;67.90
68922;DHT22;55959;51.244;5.724;2023-05-17T04:25:55;12.20;67.90
68922;DHT22;55959;51.244;5.724;2023-05-17T04:28:23;12.20;68.10
68922;DHT22;55959;51.244;5.724;2023-05-17T04:30:49;12.30;68.20
68922;DHT22;55959;51.244;5.724;2023-05-17T04:33:15;12.30;68.30
68922;DHT22;55959;51.244;5.724;2023-05-17T04:35:41;12.30;68.30
68922;DHT22;55959;51.244;5.724;2023-05-17T04:38:07;12.30;68.40
68922;DHT22;55959;51.244;5.724;2023-05-17T04:40:34;12.30;68.40
68922;DHT22;55959;51.244;5.724;2023-05-17T04:43:01;12.30;68.50
68922;DHT22;55959;51.244;5.724;2023-05-17T04:45:26;12.40;68.50
68922;DHT22;55959;51.244;5.724;2023-05-17T04:47:52;12.40;68.50
68922;DHT22;55959;51.244;5.724;2023-05-17T04:50:18;12.40;68.50
68922;DHT22;55959;51.244;5.724;2023-05-17T04:52:46;12.40;68.50
68922;DHT22;55959;51.244;5.724;2023-05-17T04:55:12;12.50;68.70
68922;DHT22;55959;51.244;5.724;2023-05-17T04:57:38;12.50;68.90
68922;DHT22;55959;51.244;5.724;2023-05-17T05:00:05;12.60;69.10
68922;DHT22;55959;51.244;5.724;2023-05-17T05:02:32;12.60;69.40
68922;DHT22;55959;51.244;5.724;2023-05-17T05:04:58;12.70;69.60
68922;DHT22;55959;51.244;5.724;2023-05-17T05:07:23;12.70;69.90
68922;DHT22;55959;51.244;5.724;2023-05-17T05:09:50;12.80;70.20
68922;DHT22;55959;51.244;5.724;2023-05-17T05:12:15;12.90;70.50
68922;DHT22;55959;51.244;5.724;2023-05-17T05:14:42;12.90;70.70
68922;DHT22;55959;51.244;5.724;2023-05-17T05:17:08;13.00;70.80
68922;DHT22;55959;51.244;5.724;2023-05-17T05:19:34;13.20;71.10
68922;DHT22;55959;51.244;5.724;2023-05-17T05:21:59;13.30;71.10
68922;DHT22;55959;51.244;5.724;2023-05-17T05:24:25;13.40;71.20
68922;DHT22;55959;51.244;5.724;2023-05-17T05:26:51;13.50;71.20
68922;DHT22;55959;51.244;5.724;2023-05-17T05:29:17;13.70;71.20
68922;DHT22;55959;51.244;5.724;2023-05-17T05:31:43;13.80;70.90
68922;DHT22;55959;51.244;5.724;2023-05-17T05:34:10;13.90;70.80
68922;DHT22;55959;51.244;5.724;2023-05-17T05:36:36;14.10;70.70
68922;DHT22;55959;51.244;5.724;2023-05-17T05:39:02;14.30;70.60
68922;DHT22;55959;51.244;5.724;2023-05-17T05:41:27;14.40;70.40
68922;DHT22;55959;51.244;5.724;2023-05-17T05:43:53;14.60;70.20
68922;DHT22;55959;51.244;5.724;2023-05-17T05:46:19;14.70;69.80
68922;DHT22;55959;51.244;5.724;2023-05-17T05:48:45;14.80;69.20
68922;DHT22;55959;51.244;5.724;2023-05-17T05:51:11;14.90;68.60
68922;DHT22;55959;51.244;5.724;2023-05-17T05:53:37;15.00;68.40
68922;DHT22;55959;51.244;5.724;2023-05-17T05:56:03;15.10;68.00
68922;DHT22;55959;51.244;5.724;2023-05-17T05:58:30;15.20;67.80
68922;DHT22;55959;51.244;5.724;2023-05-17T06:00:56;15.30;67.70
68922;DHT22;55959;51.244;5.724;2023-05-17T06:03:23;15.40;67.60
68922;DHT22;55959;51.244;5.724;2023-05-17T06:05:48;15.50;67.80
68922;DHT22;55959;51.244;5.724;2023-05-17T06:08:14;15.60;67.90
68922;DHT22;55959;51.244;5.724;2023-05-17T06:10:40;15.70;67.90
68922;DHT22;55959;51.244;5.724;2023-05-17T06:13:06;15.90;67.90
68922;DHT22;55959;51.244;5.724;2023-05-17T06:15:32;16.00;67.30
68922;DHT22;55959;51.244;5.724;2023-05-17T06:17:57;16.10;67.00
68922;DHT22;55959;51.244;5.724;2023-05-17T06:20:23;16.20;66.30
68922;DHT22;55959;51.244;5.724;2023-05-17T06:22:49;16.30;66.00
68922;DHT22;55959;51.244;5.724;2023-05-17T06:25:15;16.30;65.50
68922;DHT22;55959;51.244;5.724;2023-05-17T06:27:41;16.50;65.00
68922;DHT22;55959;51.244;5.724;2023-05-17T06:30:07;16.50;64.50
68922;DHT22;55959;51.244;5.724;2023-05-17T06:32:34;16.50;64.10
68922;DHT22;55959;51.244;5.724;2023-05-17T06:35:00;16.50;63.30
68922;DHT22;55959;51.244;5.724;2023-05-17T06:37:26;16.50;63.10
68922;DHT22;55959;51.244;5.724;2023-05-17T06:39:53;16.40;63.00
68922;DHT22;55959;51.244;5.724;2023-05-17T06:42:26;16.50;63.10
68922;DHT22;55959;51.244;5.724;2023-05-17T06:44:52;16.40;63.10
68922;DHT22;55959;51.244;5.724;2023-05-17T06:47:18;16.50;63.40
68922;DHT22;55959;51.244;5.724;2023-05-17T06:49:44;16.40;63.50
68922;DHT22;55959;51.244;5.724;2023-05-17T06:52:10;16.50;63.30
68922;DHT22;55959;51.244;5.724;2023-05-17T06:54:36;16.50;63.00
68922;DHT22;55959;51.244;5.724;2023-05-17T06:57:02;16.50;63.20
68922;DHT22;55959;51.244;5.724;2023-05-17T06:59:28;16.60;63.30
68922;DHT22;55959;51.244;5.724;2023-05-17T07:01:54;16.60;63.10
68922;DHT22;55959;51.244;5.724;2023-05-17T07:04:20;16.60;62.40
68922;DHT22;55959;51.244;5.724;2023-05-17T07:06:46;16.70;62.00
68922;DHT22;55959;51.244;5.724;2023-05-17T07:09:12;16.80;61.80
68922;DHT22;55959;51.244;5.724;2023-05-17T07:11:38;16.80;61.00
68922;DHT22;55959;51.244;5.724;2023-05-17T07:14:04;16.80;60.30
68922;DHT22;55959;51.244;5.724;2023-05-17T07:16:29;16.80;60.00
68922;DHT22;55959;51.244;5.724;2023-05-17T07:18:55;16.80;59.60
68922;DHT22;55959;51.244;5.724;2023-05-17T07:21:22;16.90;59.70
68922;DHT22;55959;51.244;5.724;2023-05-17T07:23:48;16.80;58.60
68922;DHT22;55959;51.244;5.724;2023-05-17T07:26:17;16.80;58.50
68922;DHT22;55959;51.244;5.724;2023-05-17T07:28:43;16.80;58.70
68922;DHT22;55959;51.244;5.724;2023-05-17T07:31:09;16.80;58.50
68922;DHT22;55959;51.244;5.724;2023-05-17T07:33:36;16.80;58.80
68922;DHT22;55959;51.244;5.724;2023-05-17T07:36:02;16.80;58.80
68922;DHT22;55959;51.244;5.724;2023-05-17T07:38:28;16.80;58.50
68922;DHT22;55959;51.244;5.724;2023-05-17T07:40:54;16.80;58.80
68922;DHT22;55959;51.244;5.724;2023-05-17T07:43:20;16.80;58.50
68922;DHT22;55959;51.244;5.724;2023-05-17T07:45:46;16.90;58.20
68922;DHT22;55959;51.244;5.724;2023-05-17T07:48:12;16.90;58.10
68922;DHT22;55959;51.244;5.724;2023-05-17T07:50:38;17.00;58.10
68922;DHT22;55959;51.244;5.724;2023-05-17T07:53:04;17.00;57.70
68922;DHT22;55959;51.244;5.724;2023-05-17T07:55:29;17.10;57.60
68922;DHT22;55959;51.244;5.724;2023-05-17T07:57:55;17.10;57.40
68922;DHT22;55959;51.244;5.724;2023-05-17T08:00:21;17.10;56.20
68922;DHT22;55959;51.244;5.724;2023-05-17T08:02:49;17.20;56.30
68922;DHT22;55959;51.244;5.724;2023-05-17T08:05:15;17.20;54.60
68922;DHT22;55959;51.244;5.724;2023-05-17T08:07:41;17.20;53.30
68922;DHT22;55959;51.244;5.724;2023-05-17T08:10:08;17.20;53.20
68922;DHT22;55959;51.244;5.724;2023-05-17T08:12:34;17.20;53.10
68922;DHT22;55959;51.244;5.724;2023-05-17T08:14:59;17.20;52.70
68922;DHT22;55959;51.244;5.724;2023-05-17T08:17:25;17.20;53.30
68922;DHT22;55959;51.244;5.724;2023-05-17T08:19:51;17.20;53.70
68922;DHT22;55959;51.244;5.724;2023-05-17T08:22:16;17.20;53.70
68922;DHT22;55959;51.244;5.724;2023-05-17T08:24:42;17.30;53.70
68922;DHT22;55959;51.244;5.724;2023-05-17T08:27:10;17.30;53.80
68922;DHT22;55959;51.244;5.724;2023-05-17T08:29:37;17.30;53.70
68922;DHT22;55959;51.244;5.724;2023-05-17T08:32:03;17.30;54.00
68922;DHT22;55959;51.244;5.724;2023-05-17T08:34:29;17.40;53.10
68922;DHT22;55959;51.244;5.724;2023-05-17T08:36:54;17.40;51.40
68922;DHT22;55959;51.244;5.724;2023-05-17T08:39:20;17.40;51.40
68922;DHT22;55959;51.244;5.724;2023-05-17T08:41:47;17.40;51.70
68922;DHT22;55959;51.244;5.724;2023-05-17T08:44:14;17.50;51.70
68922;DHT22;55959;51.244;5.724;2023-05-17T08:46:43;17.50;52.30
68922;DHT22;55959;51.244;5.724;2023-05-17T08:49:10;17.50;51.70
68922;DHT22;55959;51.244;5.724;2023-05-17T08:51:38;17.60;51.00
68922;DHT22;55959;51.244;5.724;2023-05-17T08:54:05;17.60;51.70
68922;DHT22;55959;51.244;5.724;2023-05-17T08:56:31;17.60;52.40
68922;DHT22;55959;51.244;5.724;2023-05-17T08:58:57;17.70;51.90
68922;DHT22;55959;51.244;5.724;2023-05-17T09:01:24;17.70;51.50
68922;DHT22;55959;51.244;5.724;2023-05-17T09:03:50;17.70;51.40
68922;DHT22;55959;51.244;5.724;2023-05-17T09:06:19;17.80;51.10
68922;DHT22;55959;51.244;5.724;2023-05-17T09:08:46;17.70;50.80
68922;DHT22;55959;51.244;5.724;2023-05-17T09:11:23;17.80;50.50
68922;DHT22;55959;51.244;5.724;2023-05-17T09:13:51;17.80;50.60
68922;DHT22;55959;51.244;5.724;2023-05-17T09:16:18;17.80;50.30
68922;DHT22;55959;51.244;5.724;2023-05-17T09:18:53;17.80;50.40
68922;DHT22;55959;51.244;5.724;2023-05-17T09:21:23;17.80;49.70
68922;DHT22;55959;51.244;5.724;2023-05-17T09:23:50;17.90;49.90
68922;DHT22;55959;51.244;5.724;2023-05-17T09:26:17;17.90;49.90
68922;DHT22;55959;51.244;5.724;2023-05-17T09:28:43;17.90;48.70
68922;DHT22;55959;51.244;5.724;2023-05-17T09:31:10;17.90;47.90
68922;DHT22;55959;51.244;5.724;2023-05-17T09:33:49;18.00;48.00
68922;DHT22;55959;51.244;5.724;2023-05-17T09:36:18;18.00;48.80
68922;DHT22;55959;51.244;5.724;2023-05-17T09:38:55;18.00;48.50
68922;DHT22;55959;51.244;5.724;2023-05-17T09:41:30;18.10;47.70
68922;DHT22;55959;51.244;5.724;2023-05-17T09:43:58;18.10;47.60
68922;DHT22;55959;51.244;5.724;2023-05-17T09:46:25;18.10;47.60
68922;DHT22;55959;51.244;5.724;2023-05-17T09:48:55;18.10;47.90
68922;DHT22;55959;51.244;5.724;2023-05-17T09:51:39;18.20;48.20
68922;DHT22;55959;51.244;5.724;2023-05-17T09:54:07;18.20;47.60
68922;DHT22;55959;51.244;5.724;2023-05-17T09:56:35;18.20;48.20
68922;DHT22;55959;51.244;5.724;2023-05-17T09:59:02;18.30;48.50
68922;DHT22;55959;51.244;5.724;2023-05-17T10:01:30;18.30;48.70
68922;DHT22;55959;51.244;5.724;2023-05-17T10:04:00;18.40;48.60
68922;DHT22;55959;51.244;5.724;2023-05-17T10:06:29;18.40;47.70
68922;DHT22;55959;51.244;5.724;2023-05-17T10:08:57;18.40;47.10
68922;DHT22;55959;51.244;5.724;2023-05-17T10:11:30;18.50;47.30
68922;DHT22;55959;51.244;5.724;2023-05-17T10:16:49;18.50;46.40
68922;DHT22;55959;51.244;5.724;2023-05-17T10:19:16;18.50;45.70
68922;DHT22;55959;51.244;5.724;2023-05-17T10:21:46;18.50;45.70
68922;DHT22;55959;51.244;5.724;2023-05-17T10:24:12;18.50;46.50
68922;DHT22;55959;51.244;5.724;2023-05-17T10:26:39;18.60;46.70
68922;DHT22;55959;51.244;5.724;2023-05-17T10:29:06;18.60;46.60
68922;DHT22;55959;51.244;5.724;2023-05-17T10:31:32;18.70;46.80
68922;DHT22;55959;51.244;5.724;2023-05-17T10:34:03;18.70;47.00
68922;DHT22;55959;51.244;5.724;2023-05-17T10:36:32;18.70;46.80
68922;DHT22;55959;51.244;5.724;2023-05-17T10:38:58;18.80;47.50
68922;DHT22;55959;51.244;5.724;2023-05-17T10:41:31;18.80;47.20
68922;DHT22;55959;51.244;5.724;2023-05-17T10:44:01;18.90;46.50
68922;DHT22;55959;51.244;5.724;2023-05-17T10:46:29;18.90;46.20
68922;DHT22;55959;51.244;5.724;2023-05-17T10:48:57;18.90;46.30
68922;DHT22;55959;51.244;5.724;2023-05-17T10:51:36;18.90;46.90
68922;DHT22;55959;51.244;5.724;2023-05-17T10:54:07;18.90;47.00
68922;DHT22;55959;51.244;5.724;2023-05-17T10:56:41;19.00;47.20
68922;DHT22;55959;51.244;5.724;2023-05-17T10:59:54;19.00;45.30
68922;DHT22;55959;51.244;5.724;2023-05-17T11:02:24;19.00;44.70
68922;DHT22;55959;51.244;5.724;2023-05-17T11:04:51;19.00;45.70
68922;DHT22;55959;51.244;5.724;2023-05-17T11:09:50;19.00;44.60
68922;DHT22;55959;51.244;5.724;2023-05-17T11:12:42;19.00;43.70
68922;DHT22;55959;51.244;5.724;2023-05-17T11:22:55;19.10;44.20
68922;DHT22;55959;51.244;5.724;2023-05-17T11:25:36;19.20;45.10
68922;DHT22;55959;51.244;5.724;2023-05-17T11:28:17;19.20;44.60
68922;DHT22;55959;51.244;5.724;2023-05-17T11:30:44;19.30;43.80
68922;DHT22;55959;51.244;5.724;2023-05-17T11:33:16;19.30;44.50
68922;DHT22;55959;51.244;5.724;2023-05-17T11:35:42;19.40;45.20
68922;DHT22;55959;51.244;5.724;2023-05-17T11:38:14;19.40;43.90
68922;DHT22;55959;51.244;5.724;2023-05-17T11:40:43;19.50;44.50
68922;DHT22;55959;51.244;5.724;2023-05-17T11:43:15;19.60;45.10
68922;DHT22;55959;51.244;5.724;2023-05-17T11:45:56;19.60;45.30
68922;DHT22;55959;51.244;5.724;2023-05-17T11:48:25;19.70;44.90
68922;DHT22;55959;51.244;5.724;2023-05-17T11:50:54;19.80;45.80
68922;DHT22;55959;51.244;5.724;2023-05-17T11:53:23;19.80;44.70
68922;DHT22;55959;51.244;5.724;2023-05-17T11:55:50;19.90;43.70
68922;DHT22;55959;51.244;5.724;2023-05-17T11:58:24;19.90;43.40
68922;DHT22;55959;51.244;5.724;2023-05-17T12:00:54;20.00;42.30
68922;DHT22;55959;51.244;5.724;2023-05-17T12:03:26;20.00;42.60
68922;DHT22;55959;51.244;5.724;2023-05-17T12:06:11;20.00;43.50
68922;DHT22;55959;51.244;5.724;2023-05-17T12:08:39;20.10;43.50
68922;DHT22;55959;51.244;5.724;2023-05-17T12:11:11;20.10;43.80
68922;DHT22;55959;51.244;5.724;2023-05-17T12:13:38;20.10;43.60
68922;DHT22;55959;51.244;5.724;2023-05-17T12:16:10;20.20;43.40
68922;DHT22;55959;51.244;5.724;2023-05-17T12:18:46;20.20;43.80
68922;DHT22;55959;51.244;5.724;2023-05-17T12:21:13;20.30;43.60
68922;DHT22;55959;51.244;5.724;2023-05-17T12:23:44;20.40;43.80
68922;DHT22;55959;51.244;5.724;2023-05-17T12:26:11;20.50;43.60
68922;DHT22;55959;51.244;5.724;2023-05-17T12:28:40;20.60;43.30
68922;DHT22;55959;51.244;5.724;2023-05-17T12:31:16;20.60;43.10
68922;DHT22;55959;51.244;5.724;2023-05-17T12:33:44;20.70;43.20
68922;DHT22;55959;51.244;5.724;2023-05-17T12:36:12;20.80;43.40
68922;DHT22;55959;51.244;5.724;2023-05-17T12:38:39;20.80;41.90
68922;DHT22;55959;51.244;5.724;2023-05-17T12:41:08;20.80;40.60
68922;DHT22;55959;51.244;5.724;2023-05-17T12:43:37;20.80;39.50
68922;DHT22;55959;51.244;5.724;2023-05-17T12:46:15;20.90;39.90
68922;DHT22;55959;51.244;5.724;2023-05-17T12:48:43;20.90;40.90
68922;DHT22;55959;51.244;5.724;2023-05-17T12:51:15;20.90;41.50
68922;DHT22;55959;51.244;5.724;2023-05-17T12:54:03;20.90;40.70
68922;DHT22;55959;51.244;5.724;2023-05-17T12:56:29;20.90;41.20
68922;DHT22;55959;51.244;5.724;2023-05-17T13:04:06;21.00;40.40
68922;DHT22;55959;51.244;5.724;2023-05-17T13:06:51;21.00;39.70
68922;DHT22;55959;51.244;5.724;2023-05-17T13:09:23;21.10;39.80
68922;DHT22;55959;51.244;5.724;2023-05-17T13:14:43;21.10;38.40
68922;DHT22;55959;51.244;5.724;2023-05-17T13:19:39;21.10;37.70
68922;DHT22;55959;51.244;5.724;2023-05-17T13:22:06;21.10;37.40
68922;DHT22;55959;51.244;5.724;2023-05-17T13:24:36;21.20;38.10
68922;DHT22;55959;51.244;5.724;2023-05-17T13:27:03;21.10;38.60
68922;DHT22;55959;51.244;5.724;2023-05-17T13:29:30;21.20;38.10
68922;DHT22;55959;51.244;5.724;2023-05-17T13:31:57;21.20;37.70
68922;DHT22;55959;51.244;5.724;2023-05-17T13:34:22;21.20;38.10
68922;DHT22;55959;51.244;5.724;2023-05-17T13:36:48;21.20;38.80
68922;DHT22;55959;51.244;5.724;2023-05-17T13:39:15;21.20;39.40
68922;DHT22;55959;51.244;5.724;2023-05-17T13:41:41;21.30;38.60
68922;DHT22;55959;51.244;5.724;2023-05-17T13:44:08;21.30;38.20
68922;DHT22;55959;51.244;5.724;2023-05-17T13:46:34;21.30;38.50
68922;DHT22;55959;51.244;5.724;2023-05-17T13:49:00;21.30;38.70
68922;DHT22;55959;51.244;5.724;2023-05-17T13:51:32;21.40;39.20
68922;DHT22;55959;51.244;5.724;2023-05-17T13:54:00;21.50;38.60
68922;DHT22;55959;51.244;5.724;2023-05-17T13:56:26;21.50;38.50
68922;DHT22;55959;51.244;5.724;2023-05-17T13:58:51;21.50;37.60
68922;DHT22;55959;51.244;5.724;2023-05-17T14:01:17;21.60;38.60
68922;DHT22;55959;51.244;5.724;2023-05-17T14:03:46;21.60;38.50
68922;DHT22;55959;51.244;5.724;2023-05-17T14:06:12;21.70;38.40
68922;DHT22;55959;51.244;5.724;2023-05-17T14:08:37;21.70;38.50
68922;DHT22;55959;51.244;5.724;2023-05-17T14:11:03;21.80;38.60
68922;DHT22;55959;51.244;5.724;2023-05-17T14:13:29;21.80;38.20
68922;DHT22;55959;51.244;5.724;2023-05-17T14:15:55;21.80;38.30
68922;DHT22;55959;51.244;5.724;2023-05-17T14:18:21;21.90;38.30
68922;DHT22;55959;51.244;5.724;2023-05-17T14:20:46;21.90;36.90
68922;DHT22;55959;51.244;5.724;2023-05-17T14:23:13;22.00;36.80
68922;DHT22;55959;51.244;5.724;2023-05-17T14:25:39;22.00;34.90
68922;DHT22;55959;51.244;5.724;2023-05-17T14:28:08;22.00;35.80
68922;DHT22;55959;51.244;5.724;2023-05-17T14:30:34;22.00;35.80
68922;DHT22;55959;51.244;5.724;2023-05-17T14:33:00;22.00;36.30
68922;DHT22;55959;51.244;5.724;2023-05-17T14:35:26;22.00;36.10
68922;DHT22;55959;51.244;5.724;2023-05-17T14:37:52;22.10;34.30
68922;DHT22;55959;51.244;5.724;2023-05-17T14:40:18;22.10;34.20
68922;DHT22;55959;51.244;5.724;2023-05-17T14:42:44;22.10;34.20
68922;DHT22;55959;51.244;5.724;2023-05-17T14:45:09;22.10;34.60
68922;DHT22;55959;51.244;5.724;2023-05-17T14:47:35;22.00;34.70
68922;DHT22;55959;51.244;5.724;2023-05-17T14:50:01;22.00;34.70
68922;DHT22;55959;51.244;5.724;2023-05-17T14:52:26;22.00;34.90
68922;DHT22;55959;51.244;5.724;2023-05-17T14:54:52;22.00;34.80
68922;DHT22;55959;51.244;5.724;2023-05-17T14:57:18;22.00;35.00
68922;DHT22;55959;51.244;5.724;2023-05-17T14:59:45;22.10;35.90
68922;DHT22;55959;51.244;5.724;2023-05-17T15:02:12;22.10;35.90
68922;DHT22;55959;51.244;5.724;2023-05-17T15:04:38;22.10;36.40
68922;DHT22;55959;51.244;5.724;2023-05-17T15:07:04;22.20;36.20
68922;DHT22;55959;51.244;5.724;2023-05-17T15:09:30;22.20;36.30
68922;DHT22;55959;51.244;5.724;2023-05-17T15:11:56;22.20;36.40
68922;DHT22;55959;51.244;5.724;2023-05-17T15:14:22;22.30;35.80
68922;DHT22;55959;51.244;5.724;2023-05-17T15:16:50;22.40;35.70
68922;DHT22;55959;51.244;5.724;2023-05-17T15:19:17;22.40;35.70
68922;DHT22;55959;51.244;5.724;2023-05-17T15:21:43;22.40;36.30
68922;DHT22;55959;51.244;5.724;2023-05-17T15:24:09;22.50;36.10
68922;DHT22;55959;51.244;5.724;2023-05-17T15:26:35;22.50;36.10
68922;DHT22;55959;51.244;5.724;2023-05-17T15:29:01;22.50;35.70
68922;DHT22;55959;51.244;5.724;2023-05-17T15:31:26;22.50;35.30
68922;DHT22;55959;51.244;5.724;2023-05-17T15:33:55;22.60;35.70
68922;DHT22;55959;51.244;5.724;2023-05-17T15:36:22;22.60;35.60
68922;DHT22;55959;51.244;5.724;2023-05-17T15:38:47;22.60;35.40
68922;DHT22;55959;51.244;5.724;2023-05-17T15:41:15;22.60;34.70
68922;DHT22;55959;51.244;5.724;2023-05-17T15:43:41;22.50;35.20
68922;DHT22;55959;51.244;5.724;2023-05-17T15:46:07;22.50;35.40
68922;DHT22;55959;51.244;5.724;2023-05-17T15:48:34;22.50;35.70
68922;DHT22;55959;51.244;5.724;2023-05-17T15:51:00;22.60;36.00
68922;DHT22;55959;51.244;5.724;2023-05-17T15:53:28;22.60;35.30
68922;DHT22;55959;51.244;5.724;2023-05-17T15:55:54;22.60;35.30
68922;DHT22;55959;51.244;5.724;2023-05-17T15:58:21;22.60;35.80
68922;DHT22;55959;51.244;5.724;2023-05-17T16:00:48;22.60;36.10
68922;DHT22;55959;51.244;5.724;2023-05-17T16:03:14;22.60;35.50
68922;DHT22;55959;51.244;5.724;2023-05-17T16:05:41;22.60;35.40